Time;durP1;ratioP1;P1;durP2;ratioP2;P2;SDS_P1;SDS_P2;PMS_P1;PMS_P2;Temp;Humidity;BMP_temperature;BMP_pressure;BME280_temperature;BME280_humidity;BME280_pressure;Samples;Min_cycle;Max_cycle;Signal;HPM_P1;HPM_P2
2023/07/28 00:02:18;;;;;;;5.30;4.90;;;17.60;99.90;;;;;;4983478;28;20034;-79
2023/07/28 00:04:43;;;;;;;4.68;4.18;;;17.60;99.90;;;;;;4971844;28;20077;-82
2023/07/28 00:07:09;;;;;;;7.13;6.43;;;17.60;99.90;;;;;;4983424;28;20455;-82
2023/07/28 00:09:35;;;;;;;8.52;7.72;;;17.60;99.90;;;;;;4968452;28;20073;-79
2023/07/28 00:12:01;;;;;;;5.32;4.88;;;17.60;99.90;;;;;;4982334;28;20495;-83
2023/07/28 00:14:27;;;;;;;6.32;5.40;;;17.70;99.90;;;;;;4970782;28;20042;-81
2023/07/28 00:16:54;;;;;;;7.22;6.53;;;17.60;99.90;;;;;;4985669;28;20031;-83
2023/07/28 00:19:21;;;;;;;7.55;6.85;;;17.70;99.90;;;;;;4993471;28;20506;-81
2023/07/28 00:21:53;;;;;;;6.85;6.15;;;17.70;99.90;;;;;;4970828;28;20089;-81
2023/07/28 00:24:19;;;;;;;7.80;7.10;;;17.60;99.90;;;;;;4971038;28;20038;-82
2023/07/28 00:26:44;;;;;;;7.38;5.65;;;17.60;99.90;;;;;;4983666;28;20038;-83
2023/07/28 00:29:10;;;;;;;8.70;7.00;;;17.60;99.90;;;;;;4986385;28;20042;-82
2023/07/28 00:31:36;;;;;;;7.43;6.82;;;17.70;99.90;;;;;;4985034;28;20479;-82
2023/07/28 00:34:03;;;;;;;6.03;5.53;;;17.60;99.90;;;;;;4970460;28;20047;-81
2023/07/28 00:36:30;;;;;;;8.20;6.82;;;17.70;99.90;;;;;;4967450;28;20046;-82
2023/07/28 00:38:56;;;;;;;7.22;6.40;;;17.60;99.90;;;;;;4965597;28;20030;-82
2023/07/28 00:41:22;;;;;;;7.18;5.55;;;17.60;99.90;;;;;;4992091;28;20049;-84
2023/07/28 00:43:48;;;;;;;4.22;3.83;;;17.60;99.90;;;;;;4977481;28;20034;-83
2023/07/28 00:46:14;;;;;;;6.28;5.78;;;17.60;99.90;;;;;;4966075;28;20129;-84
2023/07/28 00:48:40;;;;;;;4.88;4.47;;;17.60;99.90;;;;;;4970216;28;20510;-80
2023/07/28 00:51:07;;;;;;;7.78;6.75;;;17.70;99.90;;;;;;4971135;28;20100;-83
2023/07/28 00:53:33;;;;;;;8.23;7.45;;;17.60;99.90;;;;;;4994475;28;20140;-82
2023/07/28 00:56:00;;;;;;;9.45;8.55;;;17.70;99.90;;;;;;4993714;28;20117;-81
2023/07/28 00:58:26;;;;;;;8.10;7.30;;;17.60;99.90;;;;;;4961349;28;20274;-83
2023/07/28 01:00:52;;;;;;;9.02;8.23;;;17.60;99.90;;;;;;4971062;28;20125;-82
2023/07/28 01:03:20;;;;;;;7.60;6.90;;;17.60;99.90;;;;;;4969609;28;20038;-82
2023/07/28 01:05:58;;;;;;;8.02;6.75;;;17.60;99.90;;;;;;4983164;28;20471;-79
2023/07/28 01:08:29;;;;;;;10.38;9.48;;;17.60;99.90;;;;;;4979408;28;20034;-83
2023/07/28 01:10:54;;;;;;;8.45;7.68;;;17.60;99.90;;;;;;4985254;28;20318;-84
2023/07/28 01:13:20;;;;;;;6.15;5.65;;;17.60;99.90;;;;;;4996291;28;20120;-82
2023/07/28 01:15:47;;;;;;;7.18;6.57;;;17.60;99.90;;;;;;4971861;28;20046;-83
2023/07/28 01:18:13;;;;;;;7.70;7.05;;;17.60;99.90;;;;;;4990250;28;20061;-83
2023/07/28 01:20:40;;;;;;;6.00;5.28;;;17.60;99.90;;;;;;4989798;28;20030;-82
2023/07/28 01:23:18;;;;;;;7.35;6.65;;;17.70;99.90;;;;;;4979522;28;20041;-83
2023/07/28 01:26:04;;;;;;;6.22;5.72;;;17.60;99.90;;;;;;4972958;28;20041;-82
2023/07/28 01:28:30;;;;;;;10.10;8.27;;;17.70;99.90;;;;;;4989702;28;20034;-82
2023/07/28 01:30:57;;;;;;;6.95;6.25;;;17.70;99.90;;;;;;5001230;28;20409;-82
2023/07/28 01:33:22;;;;;;;6.80;6.10;;;17.70;99.90;;;;;;4991641;28;20034;-82
2023/07/28 01:35:48;;;;;;;4.90;4.40;;;17.60;99.90;;;;;;4976923;28;20505;-81
2023/07/28 01:38:14;;;;;;;8.07;7.28;;;17.70;99.90;;;;;;4979137;28;20034;-83
2023/07/28 01:40:40;;;;;;;6.32;5.40;;;17.70;99.90;;;;;;4978238;28;20121;-81
2023/07/28 01:43:05;;;;;;;5.78;5.10;;;17.70;99.90;;;;;;4993774;28;20565;-82
2023/07/28 01:45:31;;;;;;;4.65;4.25;;;17.70;99.90;;;;;;4976689;28;20300;-80
2023/07/28 01:47:57;;;;;;;3.80;3.50;;;17.70;99.90;;;;;;4978182;28;20034;-79
2023/07/28 01:50:22;;;;;;;3.72;3.42;;;17.70;99.90;;;;;;4975595;28;20046;-80
2023/07/28 01:52:48;;;;;;;6.05;5.55;;;17.70;99.90;;;;;;4995267;28;20451;-80
2023/07/28 01:55:14;;;;;;;4.97;4.32;;;17.70;99.90;;;;;;4975238;28;20039;-82
2023/07/28 01:57:40;;;;;;;4.10;3.70;;;17.70;99.90;;;;;;5008145;28;20403;-82
2023/07/28 02:00:06;;;;;;;4.45;4.05;;;17.70;99.90;;;;;;4990754;28;20084;-82
2023/07/28 02:02:41;;;;;;;6.72;6.05;;;17.70;99.90;;;;;;5006087;28;20038;-82
2023/07/28 02:05:07;;;;;;;4.65;4.25;;;17.70;99.90;;;;;;4994830;28;20042;-82
2023/07/28 02:07:32;;;;;;;4.97;3.75;;;17.70;99.90;;;;;;4990823;28;20037;-82
2023/07/28 02:09:58;;;;;;;5.80;5.30;;;17.70;99.90;;;;;;4976436;28;20092;-84
2023/07/28 02:12:24;;;;;;;5.55;5.05;;;17.70;99.90;;;;;;4975248;28;20050;-82
2023/07/28 02:14:51;;;;;;;5.45;4.95;;;17.70;99.90;;;;;;4993471;28;20474;-82
2023/07/28 02:17:17;;;;;;;5.45;4.95;;;17.70;99.90;;;;;;5004998;28;20045;-82
2023/07/28 02:19:43;;;;;;;8.40;7.50;;;17.70;99.90;;;;;;4989000;28;20030;-83
2023/07/28 02:22:08;;;;;;;8.15;6.85;;;17.70;99.90;;;;;;4989004;28;20057;-80
2023/07/28 02:24:34;;;;;;;11.10;7.90;;;17.70;99.90;;;;;;5001879;28;20430;-82
2023/07/28 02:27:00;;;;;;;7.20;6.32;;;17.70;99.90;;;;;;5004612;28;20560;-82
2023/07/28 02:29:26;;;;;;;7.95;7.15;;;17.80;99.90;;;;;;4992107;28;20475;-82
2023/07/28 02:31:51;;;;;;;9.68;7.85;;;17.70;99.90;;;;;;4983954;28;20193;-82
2023/07/28 02:34:17;;;;;;;8.93;8.02;;;17.70;99.90;;;;;;4978209;28;20042;-82
2023/07/28 02:36:43;;;;;;;6.28;5.68;;;17.70;99.90;;;;;;4976532;28;20046;-81
2023/07/28 02:39:09;;;;;;;5.13;4.63;;;17.80;99.90;;;;;;4992472;28;20037;-80
2023/07/28 02:41:34;;;;;;;7.53;6.72;;;17.70;99.90;;;;;;4991516;28;20120;-81
2023/07/28 02:44:00;;;;;;;8.98;7.22;;;17.70;99.90;;;;;;5000186;28;20038;-82
2023/07/28 02:46:26;;;;;;;12.30;10.32;;;17.70;99.90;;;;;;4991709;28;20033;-81
2023/07/28 02:48:51;;;;;;;12.57;9.27;;;17.70;99.90;;;;;;4988829;28;20108;-82
2023/07/28 02:51:17;;;;;;;12.18;8.70;;;17.70;99.90;;;;;;5005830;28;20049;-80
2023/07/28 02:53:43;;;;;;;11.35;9.48;;;17.70;99.90;;;;;;4977910;28;20038;-82
2023/07/28 02:56:09;;;;;;;9.57;7.18;;;17.70;99.90;;;;;;4983541;28;20478;-81
2023/07/28 02:58:35;;;;;;;16.40;11.48;;;17.70;99.90;;;;;;4981607;28;20038;-81
2023/07/28 03:01:00;;;;;;;13.90;9.73;;;17.70;99.90;;;;;;4994530;28;20089;-83
2023/07/28 03:03:34;;;;;;;10.35;6.78;;;17.70;99.90;;;;;;4994580;28;20081;-83
2023/07/28 03:05:59;;;;;;;15.65;10.55;;;17.70;99.90;;;;;;4970967;28;20029;-82
2023/07/28 03:08:25;;;;;;;10.45;7.65;;;17.70;99.90;;;;;;4980929;28;20061;-83
2023/07/28 03:10:58;;;;;;;19.00;13.02;;;17.70;99.90;;;;;;4977185;28;20495;-81
2023/07/28 03:13:24;;;;;;;11.43;8.27;;;17.70;99.90;;;;;;5008799;28;20025;-81
2023/07/28 03:15:50;;;;;;;8.23;6.68;;;17.70;99.90;;;;;;4991941;28;20034;-81
2023/07/28 03:18:18;;;;;;;11.48;8.55;;;17.70;99.90;;;;;;4987639;28;20041;-81
2023/07/28 03:20:45;;;;;;;9.15;7.43;;;17.70;99.90;;;;;;4993307;28;20031;-80
2023/07/28 03:23:11;;;;;;;11.50;7.75;;;17.70;99.90;;;;;;4975514;28;20057;-79
2023/07/28 03:25:37;;;;;;;12.57;9.02;;;17.70;99.90;;;;;;4999407;28;20113;-80
2023/07/28 03:28:03;;;;;;;14.55;9.25;;;17.70;99.90;;;;;;4990344;28;20033;-81
2023/07/28 03:30:28;;;;;;;12.23;8.75;;;17.80;99.90;;;;;;4980241;28;20153;-79
2023/07/28 03:32:54;;;;;;;11.57;8.50;;;17.80;99.90;;;;;;4999065;28;20076;-80
2023/07/28 03:35:20;;;;;;;16.73;10.38;;;17.80;99.90;;;;;;5005014;28;20041;-80
2023/07/28 03:37:53;;;;;;;15.70;9.38;;;17.80;99.90;;;;;;4989035;28;20296;-82
2023/07/28 03:40:21;;;;;;;15.40;10.43;;;17.80;99.90;;;;;;4984157;28;20129;-80
2023/07/28 03:42:51;;;;;;;10.45;8.20;;;17.80;99.90;;;;;;4972944;28;20521;-79
2023/07/28 03:45:17;;;;;;;13.15;9.93;;;17.80;99.90;;;;;;5005439;28;20041;-80
2023/07/28 03:47:43;;;;;;;15.55;9.63;;;17.80;99.90;;;;;;4988152;28;20040;-81
2023/07/28 03:50:09;;;;;;;11.95;8.27;;;17.80;99.90;;;;;;4990820;28;20104;-78
2023/07/28 03:52:34;;;;;;;11.60;8.80;;;17.80;99.90;;;;;;4981560;28;20034;-82
2023/07/28 03:55:00;;;;;;;15.15;10.60;;;17.80;99.90;;;;;;4991191;28;20405;-82
2023/07/28 03:57:26;;;;;;;10.68;7.60;;;17.80;99.90;;;;;;4971570;28;20467;-84
2023/07/28 03:59:51;;;;;;;16.88;9.95;;;17.80;99.90;;;;;;5005025;28;20389;-81
2023/07/28 04:02:17;;;;;;;15.32;9.85;;;17.80;99.90;;;;;;4985523;28;20048;-80
2023/07/28 04:04:56;;;;;;;13.02;9.48;;;17.80;99.90;;;;;;5092935;27;20439;-83
2023/07/28 04:07:21;;;;;;;18.38;11.50;;;17.80;99.90;;;;;;5083333;28;20436;-81
2023/07/28 04:09:47;;;;;;;17.67;12.02;;;17.80;99.90;;;;;;5084619;28;20067;-81
2023/07/28 04:12:13;;;;;;;12.82;9.00;;;17.80;99.90;;;;;;5100765;28;20030;-83
2023/07/28 04:14:38;;;;;;;11.05;7.38;;;17.80;99.90;;;;;;5100147;28;20028;-82
2023/07/28 04:17:05;;;;;;;14.20;8.18;;;17.80;99.90;;;;;;5083612;28;20048;-82
2023/07/28 04:19:30;;;;;;;11.05;7.80;;;17.80;99.90;;;;;;5083550;28;20027;-82
2023/07/28 04:22:00;;;;;;;14.05;10.27;;;17.80;99.90;;;;;;5081626;28;20115;-83
2023/07/28 04:24:27;;;;;;;13.30;9.18;;;17.80;99.90;;;;;;5082355;28;20032;-81
2023/07/28 04:26:53;;;;;;;11.27;8.23;;;17.80;99.90;;;;;;5084432;28;20079;-81
2023/07/28 04:29:19;;;;;;;11.05;6.75;;;17.80;99.90;;;;;;5083021;28;20024;-81
2023/07/28 04:31:45;;;;;;;13.38;8.30;;;17.80;99.90;;;;;;5083223;28;20024;-80
2023/07/28 04:34:13;;;;;;;17.45;11.70;;;17.80;99.90;;;;;;5066278;28;20054;-81
2023/07/28 04:36:59;;;;;;;16.92;10.95;;;17.70;99.90;;;;;;5076969;28;20075;-80
2023/07/28 04:39:31;;;;;;;16.63;10.68;;;17.80;99.90;;;;;;5097470;28;20036;-83
2023/07/28 04:41:56;;;;;;;11.18;6.88;;;17.80;99.90;;;;;;5083427;28;20027;-83
2023/07/28 04:44:22;;;;;;;14.65;9.77;;;17.80;99.90;;;;;;5079140;28;20040;-81
2023/07/28 04:46:53;;;;;;;13.93;8.68;;;17.80;99.90;;;;;;5081458;28;20549;-81
2023/07/28 04:49:21;;;;;;;11.00;6.88;;;17.80;99.90;;;;;;5082207;28;20021;-80
2023/07/28 04:52:06;;;;;;;7.15;4.95;;;17.80;99.90;;;;;;5083440;28;20150;-81
2023/07/28 04:54:44;;;;;;;12.35;6.75;;;17.80;99.90;;;;;;5083108;28;20384;-84
2023/07/28 04:57:10;;;;;;;17.92;10.60;;;17.80;99.90;;;;;;5082378;28;20032;-81
2023/07/28 04:59:37;;;;;;;14.32;8.88;;;17.80;99.90;;;;;;5080999;28;20055;-79
2023/07/28 05:02:03;;;;;;;17.35;9.43;;;17.80;99.90;;;;;;5084215;28;20056;-78
2023/07/28 05:04:29;;;;;;;15.00;8.95;;;17.80;99.90;;;;;;5098902;28;20058;-81
2023/07/28 05:06:55;;;;;;;16.90;9.50;;;17.80;99.90;;;;;;5098807;28;20111;-79
2023/07/28 05:09:21;;;;;;;18.13;9.82;;;17.80;99.90;;;;;;5064875;28;20443;-81
2023/07/28 05:11:46;;;;;;;13.15;8.18;;;17.80;99.90;;;;;;5064608;28;20052;-80
2023/07/28 05:14:12;;;;;;;18.40;10.88;;;17.80;99.90;;;;;;5079777;28;20024;-85
2023/07/28 05:16:38;;;;;;;16.25;10.40;;;17.80;99.90;;;;;;5085010;28;20034;-81
2023/07/28 05:19:23;;;;;;;10.27;6.55;;;17.80;99.90;;;;;;5084996;28;20052;-82
2023/07/28 05:21:58;;;;;;;11.80;6.60;;;17.80;99.90;;;;;;5069218;28;20032;-84
2023/07/28 05:24:43;;;;;;;13.05;6.80;;;17.80;99.90;;;;;;5069606;28;20554;-83
2023/07/28 05:27:09;;;;;;;11.63;6.65;;;17.90;99.90;;;;;;5068509;28;20388;-82
2023/07/28 05:29:35;;;;;;;12.63;7.00;;;17.90;99.90;;;;;;5085308;28;20056;-81
2023/07/28 05:32:05;;;;;;;13.60;8.17;;;17.90;99.90;;;;;;5052591;28;20023;-79
2023/07/28 05:34:38;;;;;;;20.38;12.38;;;17.90;99.90;;;;;;5068508;28;20054;-79
2023/07/28 05:37:05;;;;;;;14.55;9.13;;;17.90;99.90;;;;;;5069194;28;20025;-83
2023/07/28 05:39:32;;;;;;;20.77;12.38;;;17.90;99.90;;;;;;5051900;28;20058;-82
2023/07/28 05:41:58;;;;;;;27.52;14.63;;;17.90;99.90;;;;;;5051429;28;20056;-78
2023/07/28 05:44:24;;;;;;;19.58;12.98;;;17.90;99.90;;;;;;5063445;28;20398;-85
2023/07/28 05:46:50;;;;;;;18.63;11.15;;;18.00;99.90;;;;;;5085179;28;20035;-81
2023/07/28 05:49:16;;;;;;;13.73;8.57;;;17.90;99.90;;;;;;5050980;28;20032;-79
2023/07/28 05:51:42;;;;;;;17.88;10.50;;;18.00;99.90;;;;;;5063357;28;20028;-81
2023/07/28 05:54:14;;;;;;;18.75;10.23;;;17.90;99.90;;;;;;5068610;28;20025;-80
2023/07/28 05:56:41;;;;;;;20.92;12.85;;;17.90;99.90;;;;;;5067444;28;20112;-85
2023/07/28 05:59:06;;;;;;;22.70;14.13;;;18.00;99.90;;;;;;5069591;28;20021;-85
2023/07/28 06:01:33;;;;;;;24.92;14.40;;;17.90;99.90;;;;;;5049908;28;20086;-82
2023/07/28 06:04:17;;;;;;;20.88;13.35;;;17.90;99.90;;;;;;5068293;28;20054;-81
2023/07/28 06:06:47;;;;;;;18.70;11.32;;;18.00;99.90;;;;;;5061928;28;20145;-79
2023/07/28 06:09:14;;;;;;;26.58;14.63;;;18.00;99.90;;;;;;5050513;28;20043;-80
2023/07/28 06:11:41;;;;;;;21.63;12.43;;;18.00;99.90;;;;;;5037031;28;20029;-81
2023/07/28 06:14:07;;;;;;;18.60;11.55;;;18.00;99.90;;;;;;5065476;28;20405;-83
2023/07/28 06:16:35;;;;;;;14.43;8.75;;;18.00;99.90;;;;;;5051588;28;20031;-83
2023/07/28 06:19:00;;;;;;;13.10;7.75;;;18.10;99.90;;;;;;5065916;28;20411;-82
2023/07/28 06:21:26;;;;;;;14.77;9.98;;;18.10;99.90;;;;;;5050881;28;20024;-81
2023/07/28 06:23:52;;;;;;;13.73;8.23;;;18.10;99.90;;;;;;5066310;28;20037;-83
2023/07/28 06:26:18;;;;;;;23.15;13.68;;;18.20;99.90;;;;;;5048760;28;20020;-82
2023/07/28 06:28:44;;;;;;;13.75;9.80;;;18.20;99.90;;;;;;5065185;28;20447;-79
2023/07/28 06:31:10;;;;;;;13.98;8.35;;;18.20;99.90;;;;;;5066271;28;20107;-79
2023/07/28 06:33:36;;;;;;;19.52;12.13;;;18.20;99.90;;;;;;5066362;28;20515;-84
2023/07/28 06:36:03;;;;;;;16.38;9.50;;;18.20;99.90;;;;;;5067039;28;20087;-83
2023/07/28 06:38:29;;;;;;;13.85;8.90;;;18.30;99.90;;;;;;5082118;28;20032;-83
2023/07/28 06:40:55;;;;;;;11.88;7.53;;;18.30;99.90;;;;;;5064674;28;20024;-81
2023/07/28 06:43:21;;;;;;;10.80;7.63;;;18.40;99.90;;;;;;5045626;28;20131;-79
2023/07/28 06:45:50;;;;;;;14.70;8.18;;;18.40;99.90;;;;;;5083779;28;20029;-80
2023/07/28 06:48:16;;;;;;;13.15;8.50;;;18.50;99.90;;;;;;5083410;28;20036;-81
2023/07/28 06:50:42;;;;;;;15.20;8.93;;;18.40;99.90;;;;;;5050175;28;20037;-81
2023/07/28 06:53:08;;;;;;;10.15;6.25;;;18.40;99.90;;;;;;5083156;28;20028;-80
2023/07/28 06:55:34;;;;;;;15.45;9.95;;;18.50;99.90;;;;;;5063400;28;20081;-82
2023/07/28 06:58:03;;;;;;;13.93;9.05;;;18.50;99.90;;;;;;5063240;28;20016;-83
2023/07/28 07:00:29;;;;;;;15.93;8.88;;;18.50;99.90;;;;;;5066615;28;20182;-81
2023/07/28 07:02:55;;;;;;;10.15;6.95;;;18.60;99.90;;;;;;5066723;28;20041;-80
2023/07/28 07:05:21;;;;;;;17.05;10.68;;;18.50;99.90;;;;;;5066550;28;20108;-82
2023/07/28 07:07:46;;;;;;;17.17;10.65;;;18.50;99.90;;;;;;5063720;28;20389;-80
2023/07/28 07:10:12;;;;;;;19.45;11.75;;;18.50;99.90;;;;;;5067255;28;20051;-80
2023/07/28 07:12:38;;;;;;;21.75;14.85;;;18.50;99.90;;;;;;5067693;28;20105;-80
2023/07/28 07:15:05;;;;;;;24.13;12.60;;;18.40;99.90;;;;;;5066583;28;20072;-81
2023/07/28 07:17:32;;;;;;;20.85;12.48;;;18.40;99.90;;;;;;5065928;28;20043;-81
2023/07/28 07:19:58;;;;;;;22.23;12.88;;;18.40;99.90;;;;;;5049657;28;20025;-81
2023/07/28 07:22:23;;;;;;;21.35;13.05;;;18.40;99.90;;;;;;5065783;28;20055;-82
2023/07/28 07:24:49;;;;;;;20.67;13.20;;;18.40;99.90;;;;;;5065893;28;20112;-82
2023/07/28 07:27:15;;;;;;;24.52;14.93;;;18.40;99.90;;;;;;5061804;28;20052;-81
2023/07/28 07:29:40;;;;;;;22.77;13.48;;;18.30;99.90;;;;;;5069940;28;20024;-83
2023/07/28 07:32:07;;;;;;;27.13;14.82;;;18.40;99.90;;;;;;5049630;28;20460;-82
2023/07/28 07:34:34;;;;;;;15.73;10.07;;;18.30;99.90;;;;;;5082451;28;20025;-83
2023/07/28 07:37:00;;;;;;;14.38;9.05;;;18.40;99.90;;;;;;5064373;28;20024;-83
2023/07/28 07:39:28;;;;;;;18.60;12.13;;;18.40;99.90;;;;;;5064768;28;20032;-82
2023/07/28 07:41:54;;;;;;;15.77;9.68;;;18.50;99.90;;;;;;5064770;28;20043;-82
2023/07/28 07:44:20;;;;;;;20.70;13.02;;;18.50;99.90;;;;;;5054663;28;20032;-82
2023/07/28 07:46:46;;;;;;;19.42;12.85;;;18.40;99.90;;;;;;5065801;28;20033;-83
2023/07/28 07:49:11;;;;;;;13.27;9.32;;;18.50;99.90;;;;;;5050061;28;20041;-82
2023/07/28 07:51:37;;;;;;;18.90;11.43;;;18.60;99.90;;;;;;5065562;28;20025;-82
2023/07/28 07:54:03;;;;;;;20.35;11.32;;;18.60;99.90;;;;;;5065516;28;20119;-81
2023/07/28 07:56:29;;;;;;;18.30;11.50;;;18.60;99.90;;;;;;5065636;28;20082;-82
2023/07/28 07:58:54;;;;;;;16.02;10.48;;;18.80;99.90;;;;;;5065825;28;20030;-81
2023/07/28 08:01:20;;;;;;;19.33;11.68;;;18.90;99.90;;;;;;5066157;28;20052;-82
2023/07/28 08:03:46;;;;;;;14.25;9.43;;;19.00;99.90;;;;;;5048629;28;20051;-82
2023/07/28 08:06:12;;;;;;;14.85;9.32;;;19.10;99.90;;;;;;5066278;28;20430;-82
2023/07/28 08:08:38;;;;;;;17.88;10.25;;;19.20;99.90;;;;;;5081063;28;20032;-81
2023/07/28 08:11:04;;;;;;;15.77;10.70;;;19.20;99.90;;;;;;5066069;28;20024;-82
2023/07/28 08:13:30;;;;;;;16.45;10.35;;;19.00;99.90;;;;;;5065604;28;20029;-82
2023/07/28 08:15:56;;;;;;;17.15;11.35;;;19.00;99.90;;;;;;5066058;28;20029;-81
2023/07/28 08:18:22;;;;;;;17.23;10.32;;;19.10;99.90;;;;;;5064402;28;20527;-82
2023/07/28 08:20:48;;;;;;;14.25;9.02;;;19.10;99.90;;;;;;5082568;28;20421;-83
2023/07/28 08:23:14;;;;;;;12.60;9.57;;;19.10;99.90;;;;;;5066133;28;20033;-80
2023/07/28 08:25:40;;;;;;;12.27;8.40;;;19.30;99.90;;;;;;5082672;28;20044;-81
2023/07/28 08:28:05;;;;;;;14.32;9.60;;;19.40;99.90;;;;;;5064843;28;20083;-82
2023/07/28 08:30:31;;;;;;;12.20;8.30;;;19.30;99.90;;;;;;5065457;28;20483;-83
2023/07/28 08:32:58;;;;;;;11.90;8.60;;;19.30;99.90;;;;;;5065160;28;20503;-79
2023/07/28 08:35:23;;;;;;;11.63;8.85;;;19.30;99.90;;;;;;5065666;28;20438;-82
2023/07/28 08:37:49;;;;;;;13.10;9.02;;;19.40;99.90;;;;;;5061603;28;20025;-82
2023/07/28 08:40:16;;;;;;;11.48;8.88;;;19.20;99.90;;;;;;5065205;28;20032;-82
2023/07/28 08:42:41;;;;;;;13.85;10.40;;;19.20;99.90;;;;;;5064717;28;20036;-81
2023/07/28 08:45:08;;;;;;;15.80;10.98;;;19.20;99.90;;;;;;5048875;28;20032;-81
2023/07/28 08:47:35;;;;;;;11.18;7.82;;;19.30;99.90;;;;;;5065752;28;20584;-82
2023/07/28 08:50:01;;;;;;;11.00;8.48;;;19.60;99.90;;;;;;5067813;28;20039;-82
2023/07/28 08:52:27;;;;;;;11.73;8.63;;;19.90;99.90;;;;;;5065548;28;20029;-82
2023/07/28 08:54:53;;;;;;;11.95;8.80;;;20.10;99.90;;;;;;5084745;28;20068;-82
2023/07/28 08:57:20;;;;;;;8.57;7.40;;;20.10;99.90;;;;;;5068833;28;20031;-81
2023/07/28 08:59:48;;;;;;;8.30;6.03;;;20.20;99.90;;;;;;5065811;28;20119;-80
2023/07/28 09:02:16;;;;;;;10.27;8.45;;;20.30;99.90;;;;;;5065547;28;20032;-80
2023/07/28 09:04:47;;;;;;;9.93;7.53;;;20.20;99.90;;;;;;5085259;28;20051;-81
2023/07/28 09:07:12;;;;;;;13.07;7.68;;;20.20;99.90;;;;;;5067856;28;20090;-82
2023/07/28 09:09:40;;;;;;;10.23;6.78;;;20.20;99.90;;;;;;5067751;28;20028;-82
2023/07/28 09:12:07;;;;;;;11.65;8.77;;;20.20;99.90;;;;;;5070060;28;20305;-83
2023/07/28 09:14:36;;;;;;;14.05;9.98;;;20.10;99.90;;;;;;5064752;28;20466;-82
2023/07/28 09:17:11;;;;;;;15.38;9.60;;;20.00;99.90;;;;;;5066598;28;20032;-83
2023/07/28 09:19:56;;;;;;;9.18;6.70;;;20.20;99.90;;;;;;5067628;28;20100;-80
2023/07/28 09:22:23;;;;;;;15.88;10.57;;;20.30;99.90;;;;;;5068472;28;20020;-82
2023/07/28 09:24:50;;;;;;;13.73;10.23;;;19.90;99.90;;;;;;5069719;28;20071;-82
2023/07/28 09:27:21;;;;;;;14.00;9.60;;;20.00;99.90;;;;;;5051421;28;20020;-81
2023/07/28 09:29:49;;;;;;;17.40;11.90;;;20.00;99.90;;;;;;5068281;28;20024;-82
2023/07/28 09:32:15;;;;;;;16.45;10.30;;;20.00;99.90;;;;;;5068018;28;20029;-82
2023/07/28 09:34:40;;;;;;;14.38;10.52;;;20.10;99.90;;;;;;5067741;28;20388;-81
2023/07/28 09:37:09;;;;;;;15.45;10.52;;;20.30;99.90;;;;;;5069858;28;20036;-82
2023/07/28 09:39:36;;;;;;;18.50;12.10;;;20.30;99.90;;;;;;5068367;28;20123;-81
2023/07/28 09:42:03;;;;;;;16.35;12.57;;;20.20;99.90;;;;;;5069497;28;20072;-82
2023/07/28 09:44:29;;;;;;;17.80;13.10;;;20.30;99.90;;;;;;5084791;28;20150;-81
2023/07/28 09:46:57;;;;;;;18.40;11.68;;;20.40;99.90;;;;;;5068881;28;20033;-82
2023/07/28 09:49:36;;;;;;;13.73;10.25;;;20.40;99.90;;;;;;5068901;28;20028;-81
2023/07/28 09:52:05;;;;;;;12.80;9.57;;;20.50;99.90;;;;;;5069418;28;20035;-82
2023/07/28 09:54:35;;;;;;;15.63;11.20;;;20.60;99.90;;;;;;5068414;28;20024;-80
2023/07/28 09:57:04;;;;;;;10.82;8.70;;;20.50;99.90;;;;;;5067920;28;20051;-82
2023/07/28 09:59:38;;;;;;;13.25;10.23;;;20.70;99.90;;;;;;5068978;28;20071;-82
2023/07/28 10:02:05;;;;;;;14.00;10.43;;;20.70;99.90;;;;;;5068826;28;20056;-81
2023/07/28 10:04:33;;;;;;;13.50;11.02;;;20.60;99.90;;;;;;5066589;28;20048;-83
2023/07/28 10:07:01;;;;;;;15.48;10.57;;;20.70;99.90;;;;;;5064477;28;20362;-82
2023/07/28 10:09:30;;;;;;;14.65;12.10;;;20.90;99.90;;;;;;5049934;28;20028;-82
2023/07/28 10:11:56;;;;;;;17.08;11.65;;;21.00;99.90;;;;;;5068816;28;20112;-81
2023/07/28 10:14:30;;;;;;;15.20;11.52;;;21.40;99.90;;;;;;5050810;28;20028;-82
2023/07/28 10:16:58;;;;;;;15.73;11.82;;;22.00;99.90;;;;;;5068740;28;20039;-82
2023/07/28 10:19:27;;;;;;;13.23;9.70;;;21.70;99.90;;;;;;5066661;28;20035;-83
2023/07/28 10:22:07;;;;;;;17.23;11.45;;;21.60;99.90;;;;;;5065752;28;20388;-82
2023/07/28 10:24:52;;;;;;;10.02;8.70;;;21.50;99.90;;;;;;5066822;28;20055;-82
2023/07/28 10:27:34;;;;;;;11.43;7.93;;;22.30;99.90;;;;;;5081448;28;20036;-83
2023/07/28 10:30:01;;;;;;;10.13;8.32;;;23.20;99.90;;;;;;5062951;28;20028;-82
2023/07/28 10:32:31;;;;;;;16.35;11.52;;;23.80;99.90;;;;;;5066298;28;20032;-81
2023/07/28 10:35:01;;;;;;;10.15;8.50;;;22.70;99.90;;;;;;5050486;28;20095;-82
2023/07/28 10:37:27;;;;;;;12.73;10.55;;;23.10;99.90;;;;;;5060423;28;20024;-83
2023/07/28 10:40:24;;;;;;;11.93;10.57;;;22.90;99.90;;;;;;5050541;28;20480;-82
2023/07/28 10:42:51;;;;;;;9.90;8.90;;;23.30;99.90;;;;;;5081735;28;20390;-83
2023/07/28 10:45:17;;;;;;;9.73;8.02;;;24.30;99.90;;;;;;5062382;28;20066;-80
2023/07/28 10:47:43;;;;;;;13.07;10.70;;;24.60;99.90;;;;;;5065863;28;20488;-81
2023/07/28 10:50:09;;;;;;;10.60;8.77;;;23.60;99.90;;;;;;5068270;28;20028;-83
2023/07/28 10:52:43;;;;;;;7.70;6.43;;;23.60;99.90;;;;;;5049959;28;20043;-83
2023/07/28 10:55:15;;;;;;;8.65;7.70;;;23.80;99.90;;;;;;5083137;28;20024;-81
2023/07/28 10:57:43;;;;;;;11.65;8.77;;;23.70;99.90;;;;;;5066368;28;20086;-81
2023/07/28 11:00:11;;;;;;;10.20;9.02;;;23.50;99.90;;;;;;5082590;28;20066;-81
2023/07/28 11:02:57;;;;;;;8.80;7.22;;;22.90;99.90;;;;;;5064051;28;20555;-81
2023/07/28 11:05:26;;;;;;;12.25;10.65;;;22.50;99.90;;;;;;5063851;28;20060;-81
2023/07/28 11:07:55;;;;;;;9.27;8.20;;;22.60;99.90;;;;;;5065831;28;20068;-83
2023/07/28 11:10:21;;;;;;;7.60;6.83;;;22.90;99.90;;;;;;5065500;28;20075;-84
2023/07/28 11:12:50;;;;;;;7.50;6.72;;;23.70;99.90;;;;;;5081308;28;20349;-83
2023/07/28 11:15:16;;;;;;;7.03;6.32;;;24.10;99.90;;;;;;5066204;28;20051;-82
2023/07/28 11:17:50;;;;;;;5.57;4.93;;;24.30;99.90;;;;;;5047805;28;20036;-81
2023/07/28 11:20:21;;;;;;;4.85;4.35;;;24.50;99.90;;;;;;5064829;28;20038;-81
2023/07/28 11:22:54;;;;;;;4.32;3.92;;;24.50;99.90;;;;;;5064699;28;20021;-81
2023/07/28 11:25:21;;;;;;;3.10;2.78;;;24.20;99.90;;;;;;5065358;28;20034;-81
2023/07/28 11:27:53;;;;;;;3.85;3.05;;;24.60;99.90;;;;;;5082755;28;20025;-81
2023/07/28 11:30:23;;;;;;;3.22;2.13;;;25.10;99.90;;;;;;5081493;28;20025;-81
2023/07/28 11:32:50;;;;;;;6.38;4.40;;;24.60;99.90;;;;;;5083059;28;20032;-81
2023/07/28 11:35:20;;;;;;;3.97;3.63;;;24.10;99.90;;;;;;5067008;28;20024;-82
2023/07/28 11:37:48;;;;;;;4.55;3.00;;;24.00;99.90;;;;;;5064058;28;20592;-82
2023/07/28 11:40:16;;;;;;;2.92;2.67;;;24.80;99.90;;;;;;5048050;28;20040;-81
2023/07/28 11:42:46;;;;;;;3.33;3.03;;;24.60;99.90;;;;;;5067216;28;20028;-81
2023/07/28 11:45:14;;;;;;;3.00;2.75;;;23.90;99.90;;;;;;5066487;28;20039;-81
2023/07/28 11:47:39;;;;;;;2.55;2.35;;;23.90;99.90;;;;;;5082337;28;20035;-81
2023/07/28 11:50:05;;;;;;;4.38;2.92;;;24.20;99.90;;;;;;5048979;28;20127;-81
2023/07/28 11:52:32;;;;;;;7.15;4.15;;;23.60;99.90;;;;;;5082019;28;20024;-80
2023/07/28 11:55:04;;;;;;;4.15;3.50;;;23.50;99.90;;;;;;5038887;28;20095;-80
2023/07/28 11:57:33;;;;;;;6.15;3.45;;;23.50;99.90;;;;;;5006565;28;20036;-78
2023/07/28 12:00:04;;;;;;;4.18;3.88;;;23.80;99.90;;;;;;5028463;28;20041;-80
2023/07/28 12:02:33;;;;;;;6.10;5.30;;;24.20;99.90;;;;;;5009231;28;20569;-78
2023/07/28 12:04:59;;;;;;;5.63;5.13;;;23.50;99.90;;;;;;5008465;28;20783;-80
2023/07/28 12:07:35;;;;;;;4.70;4.30;;;23.60;99.90;;;;;;5011160;28;20060;-78
2023/07/28 12:10:08;;;;;;;8.25;6.13;;;23.90;99.90;;;;;;5010654;28;20192;-80
2023/07/28 12:12:48;;;;;;;6.25;5.65;;;23.80;99.90;;;;;;5024094;28;20021;-81
2023/07/28 12:15:28;;;;;;;4.70;4.30;;;23.60;99.90;;;;;;5028751;28;20065;-81
2023/07/28 12:18:08;;;;;;;3.30;3.00;;;24.50;99.90;;;;;;5029340;28;20029;-77
2023/07/28 12:20:53;;;;;;;;;;;24.70;99.90;;;;;;5031036;28;20110;-81
2023/07/28 12:23:20;;;;;;;4.75;4.35;;;24.70;99.90;;;;;;5029228;28;19920;-83
2023/07/28 12:25:47;;;;;;;7.05;6.35;;;24.00;99.90;;;;;;5010037;28;20069;-82
2023/07/28 12:28:13;;;;;;;5.72;4.97;;;23.80;99.90;;;;;;5043676;28;20552;-81
2023/07/28 12:30:39;;;;;;;5.53;5.03;;;24.20;99.90;;;;;;5024755;28;20034;-80
2023/07/28 12:33:06;;;;;;;5.00;4.53;;;24.40;99.90;;;;;;5026354;28;20038;-81
2023/07/28 12:35:34;;;;;;;5.30;4.78;;;24.60;99.90;;;;;;5030728;28;20136;-79
2023/07/28 12:38:05;;;;;;;4.93;4.53;;;24.20;99.90;;;;;;5016293;28;20093;-81
2023/07/28 12:40:31;;;;;;;6.07;3.70;;;24.30;99.90;;;;;;5016177;28;20120;-80
2023/07/28 12:42:58;;;;;;;4.63;4.20;;;24.90;99.90;;;;;;5026313;28;20127;-80